Time;durP1;ratioP1;P1;durP2;ratioP2;P2;SDS_P1;SDS_P2;PMS_P1;PMS_P2;Temp;Humidity;BMP_temperature;BMP_pressure;BME280_temperature;BME280_humidity;BME280_pressure;Samples;Min_cycle;Max_cycle;Signal;HPM_P1;HPM_P2
2022/03/18 00:00:54;;;;;;;9.48;5.70;;;;;;;;;;5036954;28;20076;-85
2022/03/18 00:03:20;;;;;;;10.13;6.20;;;;;;;;;;5037152;28;20045;-85
2022/03/18 00:05:47;;;;;;;16.35;5.95;;;;;;;;;;5036934;28;20092;-85
2022/03/18 00:08:13;;;;;;;19.05;6.03;;;;;;;;;;5037316;28;20049;-86
2022/03/18 00:10:39;;;;;;;10.13;5.25;;;;;;;;;;5036919;28;20190;-86
2022/03/18 00:13:05;;;;;;;10.85;5.47;;;;;;;;;;5037083;28;20049;-85
2022/03/18 00:15:31;;;;;;;18.85;6.38;;;;;;;;;;5020472;28;20044;-86
2022/03/18 00:17:57;;;;;;;10.27;5.63;;;;;;;;;;5037480;28;20048;-86
2022/03/18 00:20:23;;;;;;;12.25;5.15;;;;;;;;;;5054835;28;20055;-85
2022/03/18 00:22:50;;;;;;;15.13;5.90;;;;;;;;;;5020466;28;20056;-85
2022/03/18 00:25:17;;;;;;;10.25;6.45;;;;;;;;;;5036580;28;20049;-86
2022/03/18 00:27:43;;;;;;;12.13;6.50;;;;;;;;;;5054883;28;20374;-86
2022/03/18 00:30:10;;;;;;;17.20;7.13;;;;;;;;;;5036788;28;20098;-86
2022/03/18 00:32:38;;;;;;;12.55;6.55;;;;;;;;;;5037486;28;20049;-87
2022/03/18 00:35:04;;;;;;;20.30;7.72;;;;;;;;;;5037474;28;20041;-86
2022/03/18 00:37:30;;;;;;;20.77;7.45;;;;;;;;;;5036985;28;20084;-86
2022/03/18 00:39:56;;;;;;;16.83;6.03;;;;;;;;;;5037728;28;20072;-86
2022/03/18 00:42:22;;;;;;;21.23;7.28;;;;;;;;;;5020965;28;20059;-85
2022/03/18 00:44:50;;;;;;;19.17;6.38;;;;;;;;;;5020337;28;20127;-87
2022/03/18 00:52:46;;;;;;;19.48;7.75;;;;;;;;;;5037121;28;20081;-86
2022/03/18 00:55:12;;;;;;;18.38;8.02;;;;;;;;;;5020121;28;20406;-85
2022/03/18 00:57:38;;;;;;;20.35;8.07;;;;;;;;;;5021414;28;20045;-86
2022/03/18 01:00:05;;;;;;;17.38;7.15;;;;;;;;;;5021507;28;20470;-86
2022/03/18 01:02:31;;;;;;;19.00;7.18;;;;;;;;;;5038143;28;20044;-87
2022/03/18 01:04:57;;;;;;;19.63;7.60;;;;;;;;;;5038611;28;20100;-87
2022/03/18 01:07:23;;;;;;;16.67;6.93;;;;;;;;;;5037847;28;20464;-88
2022/03/18 01:09:49;;;;;;;10.95;6.55;;;;;;;;;;5021416;28;20049;-88
2022/03/18 01:12:16;;;;;;;22.13;7.70;;;;;;;;;;5053850;28;20086;-87
2022/03/18 01:14:42;;;;;;;16.10;7.90;;;;;;;;;;5020033;28;20132;-87
2022/03/18 01:17:08;;;;;;;17.27;7.57;;;;;;;;;;5021420;28;20436;-88
2022/03/18 01:19:34;;;;;;;21.73;7.43;;;;;;;;;;5022168;28;20056;-87
2022/03/18 01:22:00;;;;;;;13.15;6.65;;;;;;;;;;5020246;28;20049;-86
2022/03/18 01:24:26;;;;;;;15.68;7.63;;;;;;;;;;5019923;28;20041;-87
2022/03/18 01:26:52;;;;;;;18.65;7.32;;;;;;;;;;5035965;28;20068;-87
2022/03/18 01:29:18;;;;;;;15.27;7.03;;;;;;;;;;5036217;28;20077;-87
2022/03/18 01:31:44;;;;;;;14.25;7.20;;;;;;;;;;5019708;28;20048;-87
2022/03/18 01:34:10;;;;;;;15.95;7.15;;;;;;;;;;5019356;28;20044;-87
2022/03/18 01:36:36;;;;;;;13.63;7.65;;;;;;;;;;5019667;28;20440;-87
2022/03/18 01:39:03;;;;;;;15.13;7.28;;;;;;;;;;5036185;28;20472;-87
2022/03/18 01:41:29;;;;;;;18.85;7.80;;;;;;;;;;5036670;28;20379;-86
2022/03/18 01:43:55;;;;;;;25.27;7.15;;;;;;;;;;5019757;28;20044;-87
2022/03/18 01:46:21;;;;;;;15.18;6.63;;;;;;;;;;5019431;28;20041;-87
2022/03/18 01:48:48;;;;;;;19.70;7.18;;;;;;;;;;5022072;28;20047;-86
2022/03/18 01:51:15;;;;;;;13.32;7.07;;;;;;;;;;5022714;28;20478;-86
2022/03/18 01:53:43;;;;;;;13.32;7.47;;;;;;;;;;5024642;28;20056;-85
2022/03/18 01:56:09;;;;;;;20.55;8.10;;;;;;;;;;5024242;28;20464;-85
2022/03/18 01:58:35;;;;;;;18.95;7.18;;;;;;;;;;5024056;28;20040;-86
2022/03/18 02:01:01;;;;;;;11.30;6.90;;;;;;;;;;5024093;28;20611;-86
2022/03/18 02:03:28;;;;;;;15.80;7.78;;;;;;;;;;5023500;28;20083;-87
2022/03/18 02:05:54;;;;;;;21.95;8.52;;;;;;;;;;5039287;28;20047;-87
2022/03/18 02:08:20;;;;;;;16.10;8.25;;;;;;;;;;5022515;28;20136;-87
2022/03/18 02:10:46;;;;;;;14.80;7.25;;;;;;;;;;5022358;28;20080;-87
2022/03/18 02:13:12;;;;;;;16.95;8.20;;;;;;;;;;5022595;28;20414;-87
2022/03/18 02:15:39;;;;;;;19.77;8.63;;;;;;;;;;5022975;28;20041;-86
2022/03/18 02:18:06;;;;;;;12.70;7.57;;;;;;;;;;5040315;28;20094;-87
2022/03/18 02:20:35;;;;;;;10.63;6.75;;;;;;;;;;5022987;28;20139;-86
2022/03/18 02:23:01;;;;;;;13.10;7.18;;;;;;;;;;5039114;28;20382;-88
2022/03/18 02:25:28;;;;;;;16.38;8.30;;;;;;;;;;5022595;28;20091;-87
2022/03/18 02:28:01;;;;;;;14.40;6.90;;;;;;;;;;5057076;28;20049;-86
2022/03/18 02:30:33;;;;;;;14.32;7.57;;;;;;;;;;5022640;28;20041;-86
2022/03/18 02:32:59;;;;;;;15.27;7.32;;;;;;;;;;5022961;28;20041;-86
2022/03/18 02:35:28;;;;;;;35.53;8.77;;;;;;;;;;5057324;28;20052;-87
2022/03/18 02:37:55;;;;;;;14.55;7.57;;;;;;;;;;5039840;28;20037;-86
2022/03/18 02:40:21;;;;;;;12.07;7.38;;;;;;;;;;5023248;28;20049;-87
2022/03/18 02:42:47;;;;;;;12.80;7.28;;;;;;;;;;5039110;28;20044;-87
2022/03/18 02:45:13;;;;;;;14.35;8.20;;;;;;;;;;5057147;28;20052;-87
2022/03/18 02:47:39;;;;;;;17.63;7.82;;;;;;;;;;5039491;28;20128;-88
2022/03/18 02:50:06;;;;;;;11.85;7.32;;;;;;;;;;5022550;28;20051;-88
2022/03/18 02:52:32;;;;;;;15.82;7.32;;;;;;;;;;5038366;28;20136;-87
2022/03/18 02:54:59;;;;;;;17.42;8.80;;;;;;;;;;5039229;28;20124;-87
2022/03/18 02:57:25;;;;;;;18.65;7.40;;;;;;;;;;5022355;28;20557;-87
2022/03/18 02:59:51;;;;;;;19.65;9.20;;;;;;;;;;5021086;28;20037;-88
2022/03/18 03:02:17;;;;;;;13.70;6.97;;;;;;;;;;5039099;28;20124;-88
2022/03/18 03:10:12;;;;;;;14.48;7.47;;;;;;;;;;5038404;28;20156;-88
2022/03/18 03:12:41;;;;;;;16.88;7.68;;;;;;;;;;5055374;28;20064;-89
2022/03/18 03:15:08;;;;;;;16.05;7.88;;;;;;;;;;5022079;28;20052;-87
2022/03/18 03:17:35;;;;;;;11.65;8.35;;;;;;;;;;5038450;28;20041;-88
2022/03/18 03:20:01;;;;;;;20.73;8.93;;;;;;;;;;5022016;28;20045;-88
2022/03/18 03:22:30;;;;;;;13.65;6.93;;;;;;;;;;5021442;28;20135;-87
2022/03/18 03:24:57;;;;;;;21.02;8.57;;;;;;;;;;5021644;28;20128;-86
2022/03/18 03:27:29;;;;;;;12.32;7.53;;;;;;;;;;5021510;28;20044;-87
2022/03/18 03:29:56;;;;;;;11.20;6.97;;;;;;;;;;5038269;28;20409;-87
2022/03/18 03:32:22;;;;;;;17.15;9.75;;;;;;;;;;5021337;28;20052;-86
2022/03/18 03:34:48;;;;;;;15.02;8.27;;;;;;;;;;5037821;28;20131;-85
2022/03/18 03:37:14;;;;;;;18.00;7.60;;;;;;;;;;5021020;28;20088;-86
2022/03/18 03:39:40;;;;;;;14.65;7.47;;;;;;;;;;5021085;28;20037;-85
2022/03/18 03:42:06;;;;;;;14.48;7.18;;;;;;;;;;5020528;28;20056;-86
2022/03/18 03:44:32;;;;;;;12.10;6.80;;;;;;;;;;5037505;28;20049;-87
2022/03/18 03:46:58;;;;;;;12.18;7.22;;;;;;;;;;5020991;28;20044;-86
2022/03/18 03:49:24;;;;;;;14.52;7.70;;;;;;;;;;5037587;28;20049;-87
2022/03/18 03:51:50;;;;;;;12.65;7.18;;;;;;;;;;5021007;28;20478;-86
2022/03/18 03:54:16;;;;;;;16.33;8.32;;;;;;;;;;5021083;28;20041;-86
2022/03/18 03:56:42;;;;;;;13.63;8.10;;;;;;;;;;5055509;28;20048;-87
2022/03/18 03:59:08;;;;;;;13.98;7.93;;;;;;;;;;5037685;28;20371;-87
2022/03/18 04:01:34;;;;;;;11.85;7.00;;;;;;;;;;5055252;28;20485;-86
2022/03/18 04:04:01;;;;;;;14.32;7.47;;;;;;;;;;5038503;28;20037;-87
2022/03/18 04:06:27;;;;;;;15.02;8.48;;;;;;;;;;5038012;28;20041;-86
2022/03/18 04:08:53;;;;;;;16.13;8.48;;;;;;;;;;5055288;28;20045;-86
2022/03/18 04:11:19;;;;;;;16.10;8.10;;;;;;;;;;5037244;28;20182;-86
2022/03/18 04:13:45;;;;;;;12.93;8.38;;;;;;;;;;5020725;28;20615;-86
2022/03/18 04:16:11;;;;;;;14.73;8.10;;;;;;;;;;5037471;28;20045;-86
2022/03/18 04:18:37;;;;;;;15.48;7.95;;;;;;;;;;5020533;28;20049;-85
2022/03/18 04:21:03;;;;;;;14.50;9.45;;;;;;;;;;5036647;28;20052;-89
2022/03/18 04:23:29;;;;;;;15.38;8.68;;;;;;;;;;5037153;28;20045;-86
2022/03/18 04:25:55;;;;;;;12.63;7.75;;;;;;;;;;5020532;28;20084;-86
2022/03/18 04:28:21;;;;;;;10.20;7.22;;;;;;;;;;5036891;28;20084;-87
2022/03/18 04:30:47;;;;;;;13.90;7.82;;;;;;;;;;5037303;28;20033;-88
2022/03/18 04:33:13;;;;;;;12.05;7.47;;;;;;;;;;5020682;28;20103;-86
2022/03/18 04:35:39;;;;;;;16.85;8.57;;;;;;;;;;5036975;28;20481;-87
2022/03/18 04:38:05;;;;;;;15.90;8.15;;;;;;;;;;5020611;28;20045;-87
2022/03/18 04:40:32;;;;;;;19.67;8.85;;;;;;;;;;5020250;28;20095;-87
2022/03/18 04:42:58;;;;;;;16.13;9.00;;;;;;;;;;5021728;28;20135;-86
2022/03/18 04:45:24;;;;;;;23.92;8.93;;;;;;;;;;5036913;28;20402;-87
2022/03/18 04:47:50;;;;;;;11.65;8.65;;;;;;;;;;5020825;28;20087;-87
2022/03/18 04:50:17;;;;;;;16.88;9.00;;;;;;;;;;5004196;28;20117;-89
2022/03/18 04:52:43;;;;;;;13.13;8.23;;;;;;;;;;5020141;28;20051;-88
2022/03/18 04:55:09;;;;;;;18.65;9.30;;;;;;;;;;5036949;28;20142;-87
2022/03/18 04:57:35;;;;;;;18.50;9.52;;;;;;;;;;5019756;28;20045;-88
2022/03/18 05:00:01;;;;;;;13.80;8.98;;;;;;;;;;5020194;28;20186;-87
2022/03/18 05:02:28;;;;;;;13.02;9.25;;;;;;;;;;5020268;28;20136;-87
2022/03/18 05:04:54;;;;;;;17.23;9.00;;;;;;;;;;5036651;28;20489;-88
2022/03/18 05:07:20;;;;;;;14.02;8.30;;;;;;;;;;5054549;28;20128;-88
2022/03/18 05:09:47;;;;;;;20.80;8.52;;;;;;;;;;5054122;28;20461;-87
2022/03/18 05:12:14;;;;;;;15.75;8.15;;;;;;;;;;5054348;28;20056;-89
2022/03/18 05:14:41;;;;;;;19.33;9.32;;;;;;;;;;5054285;28;20041;-87
2022/03/18 05:17:08;;;;;;;15.15;8.80;;;;;;;;;;5019526;28;20052;-88
2022/03/18 05:19:34;;;;;;;16.73;9.57;;;;;;;;;;5054927;28;20041;-89
2022/03/18 05:22:01;;;;;;;13.80;8.85;;;;;;;;;;5054208;28;20560;-87
2022/03/18 05:24:27;;;;;;;15.65;9.80;;;;;;;;;;5025144;28;20045;-87
2022/03/18 05:26:57;;;;;;;15.95;9.57;;;;;;;;;;5040543;28;20041;-88
2022/03/18 05:29:25;;;;;;;13.95;9.27;;;;;;;;;;5040509;28;20555;-88
2022/03/18 05:31:52;;;;;;;15.75;10.10;;;;;;;;;;5041951;28;20517;-88
2022/03/18 05:34:18;;;;;;;15.02;9.05;;;;;;;;;;5023660;28;20052;-87
2022/03/18 05:36:44;;;;;;;18.05;8.60;;;;;;;;;;5058382;28;20044;-88
2022/03/18 05:39:10;;;;;;;13.63;9.07;;;;;;;;;;5023106;28;20041;-87
2022/03/18 05:41:37;;;;;;;18.95;9.32;;;;;;;;;;5023450;28;20083;-87
2022/03/18 05:44:03;;;;;;;18.02;9.93;;;;;;;;;;5024264;28;20124;-87
2022/03/18 05:46:29;;;;;;;13.52;9.38;;;;;;;;;;5040351;28;20041;-87
2022/03/18 05:48:56;;;;;;;11.95;9.13;;;;;;;;;;5041042;28;20053;-88
2022/03/18 05:51:22;;;;;;;12.35;10.20;;;;;;;;;;5040023;28;20151;-87
2022/03/18 05:53:48;;;;;;;16.70;9.82;;;;;;;;;;5040299;28;20037;-87
2022/03/18 05:58:59;;;;;;;20.58;9.57;;;;;;;;;;5039928;28;20048;-85
2022/03/18 06:01:25;;;;;;;25.00;9.90;;;;;;;;;;5023558;28;20045;-86
2022/03/18 06:03:51;;;;;;;14.60;9.45;;;;;;;;;;5039818;28;20045;-86
2022/03/18 06:06:18;;;;;;;10.40;8.50;;;;;;;;;;5039550;28;20040;-86
2022/03/18 06:14:18;;;;;;;17.00;10.35;;;;;;;;;;5040646;28;20041;-86
2022/03/18 06:16:44;;;;;;;15.07;9.57;;;;;;;;;;5023724;28;20045;-85
2022/03/18 06:19:11;;;;;;;20.75;10.18;;;;;;;;;;5023623;28;20077;-86
2022/03/18 06:21:39;;;;;;;13.80;10.50;;;;;;;;;;5042098;28;20057;-86
2022/03/18 06:24:06;;;;;;;14.23;10.68;;;;;;;;;;5060100;28;20477;-86
2022/03/18 06:26:33;;;;;;;17.40;11.18;;;;;;;;;;5040745;28;20095;-86
2022/03/18 06:29:00;;;;;;;15.52;9.77;;;;;;;;;;5057444;28;20053;-85
2022/03/18 06:31:26;;;;;;;22.42;10.77;;;;;;;;;;5038838;28;20051;-85
2022/03/18 06:33:52;;;;;;;17.02;11.38;;;;;;;;;;5022238;28;20055;-85
2022/03/18 06:36:18;;;;;;;30.27;15.00;;;;;;;;;;5038753;28;20535;-85
2022/03/18 06:38:44;;;;;;;19.55;11.98;;;;;;;;;;5039313;28;20060;-85
2022/03/18 06:41:10;;;;;;;25.48;13.77;;;;;;;;;;5057195;28;20041;-86
2022/03/18 06:43:36;;;;;;;19.98;12.38;;;;;;;;;;5038534;28;20041;-87
2022/03/18 06:46:03;;;;;;;20.17;12.45;;;;;;;;;;5038412;28;20052;-86
2022/03/18 06:48:29;;;;;;;20.88;12.23;;;;;;;;;;5038231;28;20406;-86
2022/03/18 06:50:55;;;;;;;20.38;12.48;;;;;;;;;;5038773;28;20510;-86
2022/03/18 06:53:21;;;;;;;16.63;11.32;;;;;;;;;;5039780;28;20503;-86
2022/03/18 06:55:47;;;;;;;24.33;12.15;;;;;;;;;;5038098;28;20055;-85
2022/03/18 06:58:13;;;;;;;17.13;11.95;;;;;;;;;;5056530;28;20120;-85
2022/03/18 07:00:39;;;;;;;17.05;11.68;;;;;;;;;;5057184;28;20068;-85
2022/03/18 07:03:06;;;;;;;22.30;12.20;;;;;;;;;;5022619;28;20413;-86
2022/03/18 07:05:32;;;;;;;18.00;10.93;;;;;;;;;;5021854;28;20131;-86
2022/03/18 07:07:58;;;;;;;18.33;11.90;;;;;;;;;;5022095;28;20045;-85
2022/03/18 07:10:24;;;;;;;18.73;10.88;;;;;;;;;;5039124;28;20131;-85
2022/03/18 07:12:50;;;;;;;23.95;10.80;;;;;;;;;;5039027;28;20049;-86
2022/03/18 07:15:17;;;;;;;15.85;11.52;;;;;;;;;;5022341;28;20052;-86
2022/03/18 07:17:55;;;;;;;17.33;10.52;;;;;;;;;;5022852;28;20037;-86
2022/03/18 07:20:25;;;;;;;21.15;13.02;;;;;;;;;;5038934;28;20494;-87
2022/03/18 07:23:03;;;;;;;18.67;12.40;;;;;;;;;;5022678;28;20095;-86
2022/03/18 07:25:30;;;;;;;24.00;11.45;;;;;;;;;;5021349;28;20506;-86
2022/03/18 07:27:56;;;;;;;20.55;12.23;;;;;;;;;;5021567;28;20051;-86
2022/03/18 07:30:22;;;;;;;19.17;12.38;;;;;;;;;;5038055;28;20048;-86
2022/03/18 07:32:48;;;;;;;19.05;11.32;;;;;;;;;;5022449;28;20045;-86
2022/03/18 07:35:14;;;;;;;27.85;13.30;;;;;;;;;;5021703;28;20041;-85
2022/03/18 07:37:41;;;;;;;24.65;12.85;;;;;;;;;;5037917;28;20044;-85
2022/03/18 07:40:08;;;;;;;26.73;13.93;;;;;;;;;;5037356;28;20045;-86
2022/03/18 07:42:42;;;;;;;22.67;13.90;;;;;;;;;;5021097;28;20132;-86
2022/03/18 07:45:09;;;;;;;29.67;13.50;;;;;;;;;;5036996;28;20076;-86
2022/03/18 07:47:35;;;;;;;30.05;14.23;;;;;;;;;;5020730;28;20040;-85
2022/03/18 07:50:01;;;;;;;22.88;13.80;;;;;;;;;;5037562;28;20482;-85
2022/03/18 07:52:27;;;;;;;28.10;13.60;;;;;;;;;;5037357;28;20044;-86
2022/03/18 07:54:53;;;;;;;29.63;13.38;;;;;;;;;;5020902;28;20045;-87
2022/03/18 07:57:19;;;;;;;22.45;12.60;;;;;;;;;;5037013;28;20106;-86
2022/03/18 07:59:45;;;;;;;24.90;13.02;;;;;;;;;;5021046;28;20041;-86
2022/03/18 08:02:11;;;;;;;27.80;12.32;;;;;;;;;;5020600;28;20044;-85
2022/03/18 08:04:37;;;;;;;23.58;13.30;;;;;;;;;;5020505;28;20103;-85
2022/03/18 08:07:03;;;;;;;24.23;11.82;;;;;;;;;;5020461;28;20048;-86
2022/03/18 08:09:30;;;;;;;23.67;12.43;;;;;;;;;;5020728;28;20045;-86
2022/03/18 08:11:56;;;;;;;24.20;11.77;;;;;;;;;;5037146;28;20060;-87
2022/03/18 08:14:22;;;;;;;28.05;12.48;;;;;;;;;;5037058;28;20045;-87
2022/03/18 08:16:48;;;;;;;26.08;13.27;;;;;;;;;;5020800;28;20037;-86
2022/03/18 08:19:14;;;;;;;23.27;11.25;;;;;;;;;;5037943;28;20049;-86
2022/03/18 08:21:59;;;;;;;20.50;12.38;;;;;;;;;;5020306;28;20559;-86
2022/03/18 08:24:25;;;;;;;26.73;12.25;;;;;;;;;;5036916;28;20045;-86
2022/03/18 08:26:52;;;;;;;23.58;12.25;;;;;;;;;;5020292;28;20455;-86
2022/03/18 08:29:18;;;;;;;30.08;12.38;;;;;;;;;;5020669;28;20044;-87
2022/03/18 08:31:44;;;;;;;23.48;11.20;;;;;;;;;;5037201;28;20041;-86
2022/03/18 08:34:10;;;;;;;35.35;12.00;;;;;;;;;;5036532;28;20132;-87
2022/03/18 08:36:36;;;;;;;26.25;11.38;;;;;;;;;;5020220;28;20048;-87
2022/03/18 08:39:02;;;;;;;32.22;12.63;;;;;;;;;;5036682;28;20044;-86
2022/03/18 08:41:28;;;;;;;22.15;11.55;;;;;;;;;;5036438;28;20056;-87
2022/03/18 08:43:54;;;;;;;22.92;10.60;;;;;;;;;;5021294;28;20083;-87
2022/03/18 08:46:20;;;;;;;19.23;11.05;;;;;;;;;;5036583;28;20041;-87
2022/03/18 08:48:46;;;;;;;29.58;10.98;;;;;;;;;;5021002;28;20045;-87
2022/03/18 08:51:12;;;;;;;27.17;10.60;;;;;;;;;;5020820;28;20040;-87
2022/03/18 08:53:38;;;;;;;19.27;10.57;;;;;;;;;;5016231;28;20485;-86
2022/03/18 08:56:04;;;;;;;24.30;11.20;;;;;;;;;;5017791;28;20037;-86
2022/03/18 08:58:31;;;;;;;19.38;10.75;;;;;;;;;;5016161;28;20446;-86
2022/03/18 09:00:57;;;;;;;21.73;8.88;;;;;;;;;;5017141;28;20138;-86
2022/03/18 09:03:23;;;;;;;22.75;9.73;;;;;;;;;;5016565;28;20056;-87
2022/03/18 09:05:49;;;;;;;13.38;7.60;;;;;;;;;;5018509;28;20071;-87
2022/03/18 09:08:15;;;;;;;31.63;9.25;;;;;;;;;;5034851;28;20088;-87
2022/03/18 09:10:41;;;;;;;18.35;10.02;;;;;;;;;;5020516;28;20049;-86
2022/03/18 09:13:07;;;;;;;21.58;9.50;;;;;;;;;;5021488;28;20049;-87
2022/03/18 09:15:33;;;;;;;22.10;10.70;;;;;;;;;;5020876;28;20544;-86
2022/03/18 09:17:59;;;;;;;19.90;9.60;;;;;;;;;;5020974;28;20041;-86
2022/03/18 09:20:26;;;;;;;26.95;10.00;;;;;;;;;;5038628;28;20052;-87
2022/03/18 09:22:52;;;;;;;17.00;9.18;;;;;;;;;;5037447;28;20139;-86
2022/03/18 09:25:20;;;;;;;19.85;9.27;;;;;;;;;;5020457;28;20041;-86
2022/03/18 09:27:46;;;;;;;22.02;9.00;;;;;;;;;;5034478;28;20366;-86
2022/03/18 09:30:13;;;;;;;19.38;7.05;;;;;;;;;;5016422;28;20470;-88
2022/03/18 09:32:42;;;;;;;20.83;8.27;;;;;;;;;;5015935;28;20091;-87
2022/03/18 09:35:08;;;;;;;23.13;8.85;;;;;;;;;;5019050;28;20045;-86
2022/03/18 09:37:34;;;;;;;14.80;7.07;;;;;;;;;;5035484;28;20143;-86
2022/03/18 09:40:04;;;;;;;18.58;7.93;;;;;;;;;;5017930;28;20056;-87
2022/03/18 09:42:32;;;;;;;17.52;8.43;;;;;;;;;;5017467;28;20049;-86
2022/03/18 09:44:58;;;;;;;18.50;7.15;;;;;;;;;;5017104;28;20045;-87
2022/03/18 09:47:24;;;;;;;19.20;7.35;;;;;;;;;;5053884;28;20397;-87
2022/03/18 09:49:50;;;;;;;18.50;7.78;;;;;;;;;;5034649;28;20070;-87
2022/03/18 09:52:16;;;;;;;26.02;7.35;;;;;;;;;;5052271;28;20090;-87
2022/03/18 09:54:48;;;;;;;13.30;7.00;;;;;;;;;;5034599;28;20072;-86
2022/03/18 09:57:14;;;;;;;22.15;7.43;;;;;;;;;;5018036;28;20137;-87
2022/03/18 09:59:40;;;;;;;27.42;7.07;;;;;;;;;;5017754;28;20351;-87
2022/03/18 10:02:28;;;;;;;17.27;7.40;;;;;;;;;;5034568;28;20103;-86
2022/03/18 10:05:16;;;;;;;15.32;6.45;;;;;;;;;;5033925;28;20140;-88
2022/03/18 10:08:02;;;;;;;19.40;7.65;;;;;;;;;;5032686;28;20464;-87
2022/03/18 10:10:29;;;;;;;20.17;6.47;;;;;;;;;;5037155;28;20182;-87
2022/03/18 10:13:01;;;;;;;17.02;7.18;;;;;;;;;;5021608;28;20336;-87
2022/03/18 10:15:30;;;;;;;16.83;7.03;;;;;;;;;;5056060;28;20041;-88
2022/03/18 10:17:57;;;;;;;21.98;6.95;;;;;;;;;;5021152;28;20080;-87
2022/03/18 10:20:26;;;;;;;25.17;7.57;;;;;;;;;;5039007;28;20037;-87
2022/03/18 10:22:56;;;;;;;22.88;8.00;;;;;;;;;;5021496;28;20069;-87
2022/03/18 10:25:39;;;;;;;17.67;7.03;;;;;;;;;;5021165;28;20540;-88
2022/03/18 10:28:06;;;;;;;23.92;6.97;;;;;;;;;;5037504;28;20162;-87
2022/03/18 10:30:32;;;;;;;19.67;6.90;;;;;;;;;;5039058;28;20060;-87
2022/03/18 10:33:01;;;;;;;18.60;7.32;;;;;;;;;;5038543;28;20098;-87
2022/03/18 10:38:30;;;;;;;19.10;7.38;;;;;;;;;;5040044;28;20041;-87
2022/03/18 10:40:57;;;;;;;20.48;7.60;;;;;;;;;;5052698;23;20057;-88
2022/03/18 10:43:23;;;;;;;26.63;8.55;;;;;;;;;;5020351;28;20056;-88
2022/03/18 10:45:59;;;;;;;19.33;6.78;;;;;;;;;;5018530;28;20071;-88
2022/03/18 10:48:25;;;;;;;17.50;7.28;;;;;;;;;;5034905;28;20068;-88
2022/03/18 10:51:02;;;;;;;24.15;7.97;;;;;;;;;;5033957;28;20128;-89
2022/03/18 10:53:30;;;;;;;20.42;7.03;;;;;;;;;;5017437;28;20049;-88
2022/03/18 10:56:01;;;;;;;16.65;7.18;;;;;;;;;;5033495;28;20060;-87
2022/03/18 10:58:30;;;;;;;18.40;7.50;;;;;;;;;;5015144;28;20038;-88
2022/03/18 11:00:59;;;;;;;25.58;7.05;;;;;;;;;;5015163;28;20053;-87
2022/03/18 11:03:26;;;;;;;20.75;7.85;;;;;;;;;;5035827;28;20053;-88
2022/03/18 11:05:52;;;;;;;13.90;7.13;;;;;;;;;;5018837;28;20490;-89
2022/03/18 11:08:22;;;;;;;15.70;6.22;;;;;;;;;;5018175;28;20049;-87
2022/03/18 11:13:37;;;;;;;9.30;5.28;;;;;;;;;;5034729;28;20420;-88
2022/03/18 11:16:04;;;;;;;13.80;6.45;;;;;;;;;;5018375;28;20051;-88
2022/03/18 11:18:31;;;;;;;13.30;6.68;;;;;;;;;;5018502;28;20034;-88
2022/03/18 11:21:01;;;;;;;12.63;6.47;;;;;;;;;;5017834;28;20079;-89
2022/03/18 11:23:27;;;;;;;12.60;6.20;;;;;;;;;;5018963;28;20041;-87
2022/03/18 11:25:55;;;;;;;19.33;6.82;;;12.60;99.90;;;;;;5035955;28;20049;-87
2022/03/18 11:28:22;;;;;;;24.45;6.68;;;;;;;;;;5034623;28;20045;-88
2022/03/18 11:31:00;;;;;;;16.85;6.78;;;12.60;99.90;;;;;;5018074;28;20044;-87
2022/03/18 11:33:26;;;;;;;15.70;6.68;;;;;;;;;;5015994;28;20124;-88
2022/03/18 11:35:52;;;;;;;16.17;6.03;;;;;;;;;;5015024;28;20052;-88
2022/03/18 11:38:23;;;;;;;22.70;6.80;;;;;;;;;;5015169;28;20046;-88
2022/03/18 11:40:57;;;;;;;13.43;6.80;;;;;;;;;;5014042;28;20113;-87
2022/03/18 11:43:33;;;;;;;16.10;6.63;;;;;;;;;;5014380;28;20057;-87
2022/03/18 11:46:17;;;;;;;19.88;5.97;;;;;;;;;;5029733;28;20044;-87
2022/03/18 11:48:43;;;;;;;;;;;;;;;;;;5013944;28;20052;-87
2022/03/18 11:51:31;;;;;;;15.20;6.00;;;;;;;;;;5030591;28;19965;-88
2022/03/18 11:54:00;;;;;;;16.50;6.70;;;;;;;;;;5013250;28;20117;-88
2022/03/18 11:56:45;;;;;;;20.67;5.65;;;;;;;;;;5030563;28;20057;-87
2022/03/18 11:59:29;;;;;;;18.17;6.25;;;;;;;;;;5013199;28;20497;-87
2022/03/18 12:01:55;;;;;;;17.17;6.63;;;;;;;;;;5015695;28;20049;-87
2022/03/18 12:04:38;;;;;;;17.50;5.85;;;;;;;;;;5015025;28;20060;-87
2022/03/18 12:07:08;;;;;;;14.50;5.80;;;;;;;;;;5031982;28;20431;-88
2022/03/18 12:09:51;;;;;;;21.67;7.50;;;;;;;;;;5014668;28;20093;-89
2022/03/18 12:12:18;;;;;;;25.50;7.30;;;;;;;;;;5015442;28;20041;-87
2022/03/18 12:14:44;;;;;;;24.08;6.15;;;;;;;;;;5031215;28;20053;-87
2022/03/18 12:17:10;;;;;;;18.23;5.88;;;;;;;;;;5033107;28;20045;-88
2022/03/18 12:19:37;;;;;;;13.70;5.90;;;;;;;;;;5015737;28;20060;-89
2022/03/18 12:22:03;;;;;;;11.68;4.85;;;;;;;;;;5030793;28;20045;-88
2022/03/18 12:24:29;;;;;;;14.65;5.95;;;;;;;;;;5031781;28;20060;-90
2022/03/18 12:26:56;;;;;;;16.45;5.32;;;;;;;;;;5014092;28;20441;-88
2022/03/18 12:29:26;;;;;;;17.20;5.75;;;;;;;;;;5014639;28;20076;-87
2022/03/18 12:32:01;;;;;;;12.00;5.50;;;;;;;;;;5030480;28;20139;-87
2022/03/18 12:34:28;;;;;;;14.63;5.60;;;;;;;;;;5031495;28;20051;-89
2022/03/18 12:36:54;;;;;;;24.52;7.20;;;;;;;;;;5031179;28;20060;-89
2022/03/18 12:39:20;;;;;;;19.50;5.95;;;;;;;;;;5015507;28;20493;-88
2022/03/18 12:41:46;;;;;;;18.45;6.38;;;;;;;;;;5014615;28;20490;-88
2022/03/18 12:44:12;;;;;;;16.98;6.45;;;;;;;;;;5014537;28;20053;-88
2022/03/18 12:46:39;;;;;;;12.52;5.13;;;;;;;;;;5013903;28;20042;-87
2022/03/18 12:49:09;;;;;;;16.77;6.18;;;;;;;;;;5013023;28;20084;-88
2022/03/18 12:51:36;;;;;;;18.73;5.35;;;;;;;;;;5014306;28;20438;-88
2022/03/18 12:54:02;;;;;;;20.08;5.72;;;;;;;;;;5013104;28;20064;-87
2022/03/18 12:56:29;;;;;;;17.40;5.65;;;;;;;;;;5013822;28;20124;-88
2022/03/18 12:58:57;;;;;;;21.10;5.97;;;;;;;;;;5013670;28;20482;-88
2022/03/18 13:01:23;;;;;;;14.18;4.78;;;;;;;;;;5030678;28;20053;-88
2022/03/18 13:03:51;;;;;;;21.88;5.68;;;;;;;;;;5014723;28;20391;-87
2022/03/18 13:06:22;;;;;;;19.55;6.35;;;;;;;;;;5014698;28;20065;-87
2022/03/18 13:08:54;;;;;;;18.98;5.68;;;;;;;;;;5014435;28;20132;-88
2022/03/18 13:11:20;;;;;;;17.58;5.03;;;;;;;;;;5013729;28;20107;-87
2022/03/18 13:13:48;;;;;;;25.98;6.93;;;;;;;;;;5017272;28;20049;-88
2022/03/18 13:16:15;;;;;;;18.38;5.22;;;;;;;;;;5033968;28;20063;-88
2022/03/18 13:18:49;;;;;;;14.40;4.75;;;;;;;;;;5034383;28;20049;-87
2022/03/18 13:21:15;;;;;;;15.35;5.60;;;;;;;;;;5034844;28;20076;-88
2022/03/18 13:23:42;;;;;;;12.90;5.25;;;;;;;;;;5033699;28;20095;-88
2022/03/18 13:26:13;;;;;;;14.15;5.00;;;;;;;;;;5017227;28;20493;-88
2022/03/18 13:28:39;;;;;;;13.45;4.80;;;;;;;;;;5034165;28;20061;-88
2022/03/18 13:33:54;;;;;;;26.33;5.32;;;13.50;99.90;;;;;;5034004;28;20061;-90
2022/03/18 13:36:32;;;;;;;19.63;5.57;;;13.60;99.90;;;;;;5033153;28;20111;-88
2022/03/18 13:39:06;;;;;;;15.38;5.47;;;13.30;99.90;;;;;;5018144;28;20466;-90
2022/03/18 13:41:48;;;;;;;28.55;4.93;;;13.50;99.90;;;;;;5033165;28;20063;-89
2022/03/18 13:44:15;;;;;;;13.68;3.92;;;;;;;;;;5035265;28;20103;-88
2022/03/18 13:46:42;;;;;;;19.65;6.82;;;;;;;;;;5020795;28;20053;-91
2022/03/18 13:49:09;;;;;;;20.67;4.43;;;;;;;;;;5020648;28;20132;-90
2022/03/18 13:51:40;;;;;;;13.82;4.28;;;;;;;;;;5037239;28;20045;-89
2022/03/18 13:54:10;;;;;;;14.35;5.20;;;;;;;;;;5021070;28;20046;-92
2022/03/18 13:56:40;;;;;;;13.02;3.83;;;13.40;99.90;;;;;;5021540;28;20080;-88
2022/03/18 13:59:13;;;;;;;16.52;3.35;;;;;;;;;;5037156;28;20053;-91
2022/03/18 14:01:57;;;;;;;13.80;4.03;;;13.30;99.90;;;;;;5038412;28;20034;-91
2022/03/18 14:04:23;;;;;;;14.73;4.28;;;;;;;;;;5021162;28;20406;-88
2022/03/18 14:06:57;;;;;;;13.45;3.92;;;13.50;99.90;;;;;;5020399;28;20046;-90
2022/03/18 14:09:24;;;;;;;15.27;3.63;;;;;;;;;;5037476;28;20075;-90
2022/03/18 14:14:36;;;;;;;12.90;3.60;;;;;;;;;;5039220;28;20089;-91
2022/03/18 14:17:16;;;;;;;19.38;4.07;;;;;;;;;;5039613;28;20130;-92
2022/03/18 14:19:59;;;;;;;13.73;4.05;;;;;;;;;;5022752;28;20045;-89
2022/03/18 14:22:36;;;;;;;19.73;4.43;;;;;;;;;;5038467;28;20103;-88
2022/03/18 14:25:06;;;;;;;10.40;3.72;;;13.50;99.90;;;;;;5020781;28;20045;-90
2022/03/18 14:27:33;;;;;;;17.85;4.03;;;;;;;;;;5022128;28;20049;-91
2022/03/18 14:30:05;;;;;;;19.42;4.78;;;;;;;;;;5026018;28;20072;-89
2022/03/18 14:32:31;;;;;;;15.30;4.25;;;;;;;;;;5023602;28;20479;-90
2022/03/18 14:34:57;;;;;;;15.13;4.35;;;;;;;;;;5039044;28;20136;-92
2022/03/18 14:37:25;;;;;;;8.20;3.08;;;;;;;;;;5036810;28;20041;-86
2022/03/18 14:39:52;;;;;;;16.52;4.07;;;;;;;;;;5038289;28;20041;-87
2022/03/18 14:42:20;;;;;;;13.60;4.50;;;;;;;;;;5021367;28;20491;-88
2022/03/18 14:44:47;;;;;;;12.02;3.28;;;;;;;;;;5021440;28;20095;-87
2022/03/18 14:47:15;;;;;;;19.65;3.63;;;;;;;;;;5020817;28;20136;-88
2022/03/18 14:49:41;;;;;;;11.15;3.72;;;;;;;;;;5021073;28;20056;-87
2022/03/18 14:52:07;;;;;;;12.98;4.30;;;;;;;;;;5021031;28;20049;-87
2022/03/18 14:57:19;;;;;;;16.67;4.40;;;;;;;;;;5037363;28;20065;-88
2022/03/18 14:59:48;;;;;;;20.25;5.32;;;;;;;;;;5021567;28;20409;-88